Time;durP1;ratioP1;P1;durP2;ratioP2;P2;SDS_P1;SDS_P2;PMS_P1;PMS_P2;Temp;Humidity;BMP_temperature;BMP_pressure;BME280_temperature;BME280_humidity;BME280_pressure;Samples;Min_cycle;Max_cycle;Signal;HPM_P1;HPM_P2
2023/08/17 00:02:23;;;;;;;11.48;7.82;;;;;;;;;;5040557;28;20445;-83
2023/08/17 00:04:49;;;;;;;10.10;7.38;;;;;;;;;;5058382;28;20127;-85
2023/08/17 00:07:14;;;;;;;11.18;8.45;;;;;;;;;;5059339;28;20021;-82
2023/08/17 00:09:39;;;;;;;13.27;9.50;;;;;;;;;;5052206;28;20055;-82
2023/08/17 00:12:05;;;;;;;16.02;12.52;;;;;;;;;;5057257;28;20021;-84
2023/08/17 00:14:30;;;;;;;12.15;10.25;;;;;;;;;;5057759;28;20021;-84
2023/08/17 00:16:56;;;;;;;17.17;10.23;;;;;;;;;;5058513;28;20044;-80
2023/08/17 00:19:21;;;;;;;23.92;11.63;;;;;;;;;;5059319;28;20064;-82
2023/08/17 00:21:46;;;;;;;11.38;9.98;;;;;;;;;;5058387;28;20052;-81
2023/08/17 00:24:12;;;;;;;13.45;10.57;;;;;;;;;;5058635;28;20017;-81
2023/08/17 00:26:37;;;;;;;15.07;11.32;;;;;;;;;;5058449;28;20024;-81
2023/08/17 00:29:03;;;;;;;23.05;14.20;;;;;;;;;;5057720;28;20045;-79
2023/08/17 00:31:28;;;;;;;15.27;12.32;;;;;;;;;;5040599;28;20052;-80
2023/08/17 00:33:53;;;;;;;15.20;10.65;;;;;;;;;;5056817;28;20029;-79
2023/08/17 00:36:19;;;;;;;14.70;11.82;;;;;;;;;;5057929;28;20045;-79
2023/08/17 00:38:44;;;;;;;18.88;15.00;;;;;;;;;;5059432;28;20017;-81
2023/08/17 00:41:09;;;;;;;19.73;13.23;;;;;;;;;;5058955;28;20059;-80
2023/08/17 00:43:35;;;;;;;17.27;11.48;;;;;;;;;;5058878;28;20036;-81
2023/08/17 00:46:01;;;;;;;13.15;10.25;;;;;;;;;;5041918;28;20037;-82
2023/08/17 00:48:26;;;;;;;15.15;12.02;;;;;;;;;;5065471;28;20049;-80
2023/08/17 00:50:52;;;;;;;15.95;11.57;;;;;;;;;;5067820;28;20025;-81
2023/08/17 00:53:20;;;;;;;13.32;10.57;;;;;;;;;;5064168;28;20044;-82
2023/08/17 00:55:45;;;;;;;18.17;10.02;;;;;;;;;;5057643;28;20052;-82
2023/08/17 00:58:11;;;;;;;10.63;9.50;;;;;;;;;;5058635;28;20033;-84
2023/08/17 01:00:37;;;;;;;10.80;8.98;;;;;;;;;;5057297;28;20033;-79
2023/08/17 01:03:03;;;;;;;13.07;9.88;;;;;;;;;;5057707;28;20052;-83
2023/08/17 01:05:30;;;;;;;12.25;9.10;;;;;;;;;;5039361;28;20049;-81
2023/08/17 01:07:56;;;;;;;15.13;10.07;;;;;;;;;;5040005;28;20502;-83
2023/08/17 01:10:22;;;;;;;13.80;9.77;;;;;;;;;;5057628;28;20047;-80
2023/08/17 01:13:12;;;;;;;10.90;9.75;;;;;;;;;;5057086;28;20111;-81
2023/08/17 01:15:45;;;;;;;17.38;12.25;;;;;;;;;;5040364;28;20067;-82
2023/08/17 01:18:21;;;;;;;16.90;11.93;;;;;;;;;;5057365;28;20028;-81
2023/08/17 01:20:48;;;;;;;18.70;12.27;;;;;;;;;;5058627;28;20025;-82
2023/08/17 01:23:13;;;;;;;16.83;12.30;;;;;;;;;;5056836;28;20057;-81
2023/08/17 01:25:38;;;;;;;22.08;14.73;;;;;;;;;;5046605;28;20537;-80
2023/08/17 01:28:04;;;;;;;22.17;15.75;;;;;;;;;;5056893;28;20041;-82
2023/08/17 01:30:53;;;;;;;23.20;15.73;;;;;;;;;;5057187;28;20068;-84
2023/08/17 01:33:31;;;;;;;22.63;15.65;;;;;;;;;;5055484;28;20139;-82
2023/08/17 01:36:04;;;;;;;25.00;16.90;;;;;;;;;;5057718;28;20438;-78
2023/08/17 01:38:32;;;;;;;19.60;14.82;;;;;;;;;;5055899;28;20060;-81
2023/08/17 01:40:59;;;;;;;17.27;14.50;;;;;;;;;;5056848;28;20033;-81
2023/08/17 01:43:25;;;;;;;21.73;13.13;;;;;;;;;;5051518;28;20033;-80
2023/08/17 01:45:51;;;;;;;16.95;13.15;;;;;;;;;;5054361;28;20560;-82
2023/08/17 01:48:16;;;;;;;19.00;13.50;;;;;;;;;;5064630;28;20578;-82
2023/08/17 01:50:41;;;;;;;15.77;12.38;;;;;;;;;;5065341;28;20017;-83
2023/08/17 01:53:08;;;;;;;16.80;12.95;;;;;;;;;;5047285;28;20049;-83
2023/08/17 01:55:35;;;;;;;19.13;12.73;;;;;;;;;;5064191;28;20083;-82
2023/08/17 01:58:00;;;;;;;16.17;12.40;;;;;;;;;;5064542;28;20029;-82
2023/08/17 02:00:25;;;;;;;18.27;11.68;;;;;;;;;;5045331;28;20474;-83
2023/08/17 02:02:51;;;;;;;15.57;11.02;;;;;;;;;;5062776;28;20056;-83
2023/08/17 02:05:16;;;;;;;13.05;10.25;;;;;;;;;;5062354;28;20037;-82
2023/08/17 02:07:41;;;;;;;12.48;10.70;;;;;;;;;;5062821;28;20174;-82
2023/08/17 02:10:07;;;;;;;12.85;9.93;;;;;;;;;;5061878;28;20029;-83
2023/08/17 02:12:32;;;;;;;13.05;10.18;;;;;;;;;;5062032;28;20455;-81
2023/08/17 02:14:57;;;;;;;15.40;9.57;;;;;;;;;;5085746;22;20048;-80
2023/08/17 02:17:23;;;;;;;12.07;10.38;;;;;;;;;;5035121;28;20047;-80
2023/08/17 02:19:48;;;;;;;13.15;10.57;;;;;;;;;;5035263;28;20033;-81
2023/08/17 02:22:14;;;;;;;19.95;13.07;;;;;;;;;;5020761;28;20048;-80
2023/08/17 02:24:40;;;;;;;16.42;13.48;;;;;;;;;;5018091;28;20053;-80
2023/08/17 02:27:06;;;;;;;22.83;14.65;;;;;;;;;;5019736;28;20048;-80
2023/08/17 02:29:31;;;;;;;24.77;16.80;;;;;;;;;;5022692;28;20021;-80
2023/08/17 02:31:57;;;;;;;23.33;16.20;;;;;;;;;;5016172;28;20029;-79
2023/08/17 02:34:22;;;;;;;22.52;16.58;;;;;;;;;;5033908;28;20758;-79
2023/08/17 02:36:47;;;;;;;19.17;14.75;;;;;;;;;;5023342;28;20052;-80
2023/08/17 02:39:13;;;;;;;26.23;15.82;;;;;;;;;;5016325;28;20059;-80
2023/08/17 02:41:39;;;;;;;25.15;15.07;;;;;;;;;;5036831;28;20029;-79
2023/08/17 02:44:04;;;;;;;20.05;14.07;;;;;;;;;;5018042;28;20025;-77
2023/08/17 02:46:29;;;;;;;17.52;13.80;;;;;;;;;;5015550;28;20095;-79
2023/08/17 02:48:55;;;;;;;17.23;14.00;;;;;;;;;;5033273;28;20124;-79
2023/08/17 02:51:20;;;;;;;22.92;15.35;;;;;;;;;;5032374;28;20030;-79
2023/08/17 02:53:45;;;;;;;21.88;14.40;;;;;;;;;;5036390;28;20022;-80
2023/08/17 02:56:12;;;;;;;21.85;14.73;;;;;;;;;;5018989;28;20458;-80
2023/08/17 02:58:40;;;;;;;20.27;13.98;;;;;;;;;;5016801;28;20030;-80
2023/08/17 03:01:06;;;;;;;20.50;14.27;;;;;;;;;;5033325;28;20403;-80
2023/08/17 03:03:31;;;;;;;20.85;13.85;;;;;;;;;;5015049;28;20527;-80
2023/08/17 03:05:57;;;;;;;21.92;13.65;;;;;;;;;;5037653;28;20025;-80
2023/08/17 03:08:22;;;;;;;25.02;13.55;;;;;;;;;;5034119;28;20037;-80
2023/08/17 03:10:48;;;;;;;15.35;12.02;;;;;;;;;;5021403;28;20140;-80
2023/08/17 03:13:13;;;;;;;16.20;12.43;;;;;;;;;;5035357;28;20030;-79
2023/08/17 03:15:39;;;;;;;15.82;11.75;;;;;;;;;;5034683;28;20037;-80
2023/08/17 03:18:05;;;;;;;17.63;12.15;;;;;;;;;;5041291;28;20505;-80
2023/08/17 03:20:30;;;;;;;18.63;12.00;;;;;;;;;;5021029;28;20025;-79
2023/08/17 03:22:56;;;;;;;17.98;11.35;;;;;;;;;;5034180;28;20116;-80
2023/08/17 03:25:21;;;;;;;14.70;11.95;;;;;;;;;;5016052;28;20063;-80
2023/08/17 03:27:46;;;;;;;19.38;12.63;;;;;;;;;;5035969;28;20029;-80
2023/08/17 03:30:12;;;;;;;18.08;14.05;;;;;;;;;;5032727;28;20036;-79
2023/08/17 03:32:37;;;;;;;25.40;14.25;;;;;;;;;;5022526;28;20051;-80
2023/08/17 03:35:03;;;;;;;22.42;14.00;;;;;;;;;;5033036;28;20477;-80
2023/08/17 03:37:29;;;;;;;21.40;15.63;;;;;;;;;;5032448;28;21761;-80
2023/08/17 03:39:54;;;;;;;22.65;16.58;;;;;;;;;;5033919;28;20038;-80
2023/08/17 03:42:20;;;;;;;26.98;16.85;;;;;;;;;;5039652;28;20048;-80
2023/08/17 03:44:45;;;;;;;20.67;14.77;;;;;;;;;;5016180;28;20042;-80
2023/08/17 03:47:11;;;;;;;21.70;14.60;;;;;;;;;;5035221;28;20060;-80
2023/08/17 03:49:36;;;;;;;19.40;15.27;;;;;;;;;;5020668;28;20033;-80
2023/08/17 03:52:02;;;;;;;26.90;16.55;;;;;;;;;;5021028;28;20408;-80
2023/08/17 03:54:27;;;;;;;20.77;15.90;;;;;;;;;;5017836;28;20045;-79
2023/08/17 03:56:52;;;;;;;18.88;13.95;;;;;;;;;;5016848;28;20064;-80
2023/08/17 03:59:18;;;;;;;23.85;14.45;;;;;;;;;;5036296;28;20057;-81
2023/08/17 04:01:43;;;;;;;19.25;13.23;;;;;;;;;;5033453;28;20390;-80
2023/08/17 04:04:09;;;;;;;21.98;11.77;;;;;;;;;;5034553;28;20030;-80
2023/08/17 04:06:34;;;;;;;16.30;12.48;;;;;;;;;;5018203;28;20079;-80
2023/08/17 04:09:00;;;;;;;25.23;14.32;;;;;;;;;;5034683;28;20025;-80
2023/08/17 04:11:26;;;;;;;15.20;11.70;;;;;;;;;;5016038;28;20037;-80
2023/08/17 04:13:51;;;;;;;14.95;12.05;;;;;;;;;;5032300;28;20042;-80
2023/08/17 04:16:16;;;;;;;16.73;11.63;;;;;;;;;;5018691;28;20045;-80
2023/08/17 04:18:41;;;;;;;17.02;11.80;;;;;;;;;;5037242;28;20483;-79
2023/08/17 04:21:07;;;;;;;12.60;10.05;;;;;;;;;;5036028;28;20021;-80
2023/08/17 04:23:32;;;;;;;19.95;10.55;;;;;;;;;;5039633;28;20059;-80
2023/08/17 04:25:57;;;;;;;15.70;11.23;;;;;;;;;;5044927;28;20029;-80
2023/08/17 04:28:23;;;;;;;16.95;11.82;;;;;;;;;;5038871;28;20717;-79
2023/08/17 04:30:48;;;;;;;16.65;13.43;;;;;;;;;;5035762;28;20042;-79
2023/08/17 04:33:22;;;;;;;19.05;12.75;;;;;;;;;;5033656;28;20017;-80
2023/08/17 04:35:48;;;;;;;16.73;12.80;;;;;;;;;;5035178;28;20025;-80
2023/08/17 04:38:13;;;;;;;18.42;13.95;;;;;;;;;;5015962;28;20025;-79
2023/08/17 04:40:38;;;;;;;20.88;13.77;;;;;;;;;;5033079;28;20710;-79
2023/08/17 04:43:04;;;;;;;21.15;13.23;;;;;;;;;;5040607;28;20044;-79
2023/08/17 04:45:29;;;;;;;17.98;13.43;;;;;;;;;;5033684;28;20033;-79
2023/08/17 04:47:54;;;;;;;16.17;11.60;;;;;;;;;;5019621;28;20111;-79
2023/08/17 04:50:20;;;;;;;18.33;11.30;;;;;;;;;;5034206;28;20042;-79
2023/08/17 04:52:45;;;;;;;14.43;11.30;;;;;;;;;;5036896;28;20068;-79
2023/08/17 04:55:12;;;;;;;15.63;11.25;;;;;;;;;;5035763;28;20117;-79
2023/08/17 04:57:38;;;;;;;18.90;12.93;;;;;;;;;;5039315;28;20037;-79
2023/08/17 05:00:08;;;;;;;17.98;10.90;;;;;;;;;;5037119;28;20085;-80
2023/08/17 05:02:34;;;;;;;13.10;10.45;;;;;;;;;;5021011;28;20025;-80
2023/08/17 05:04:59;;;;;;;12.63;10.50;;;;;;;;;;5034353;28;20040;-79
2023/08/17 05:07:24;;;;;;;12.23;9.23;;;;;;;;;;5039875;28;20120;-79
2023/08/17 05:09:50;;;;;;;8.35;7.00;;;;;;;;;;5035904;28;20040;-79
2023/08/17 05:12:15;;;;;;;9.98;7.55;;;;;;;;;;5021122;28;20013;-79
2023/08/17 05:14:40;;;;;;;11.40;8.10;;;;;;;;;;5024503;28;20037;-80
2023/08/17 05:17:06;;;;;;;9.18;7.55;;;;;;;;;;5039245;28;20036;-80
2023/08/17 05:19:31;;;;;;;9.43;6.95;;;;;;;;;;5043292;28;20421;-78
2023/08/17 05:21:56;;;;;;;9.05;7.15;;;;;;;;;;5016494;28;20034;-79
2023/08/17 05:24:22;;;;;;;7.30;6.57;;;;;;;;;;5022003;28;20033;-78
2023/08/17 05:26:47;;;;;;;8.10;6.68;;;;;;;;;;5035191;28;20040;-79
2023/08/17 05:29:12;;;;;;;6.50;5.82;;;;;;;;;;5020723;28;20478;-79
2023/08/17 05:31:37;;;;;;;8.65;6.07;;;;;;;;;;5017048;28;20093;-79
2023/08/17 05:34:03;;;;;;;8.23;5.80;;;;;;;;;;5037447;28;20091;-79
2023/08/17 05:36:29;;;;;;;7.47;6.00;;;;;;;;;;5037224;28;20040;-79
2023/08/17 05:38:54;;;;;;;7.85;6.20;;;;;;;;;;5018652;28;20028;-79
2023/08/17 05:41:19;;;;;;;7.65;6.32;;;;;;;;;;5017873;28;20041;-80
2023/08/17 05:43:45;;;;;;;7.38;5.63;;;;;;;;;;5023431;28;20041;-80
2023/08/17 05:46:10;;;;;;;6.30;5.70;;;;;;;;;;5017320;28;20522;-80
2023/08/17 05:48:35;;;;;;;10.13;6.63;;;;;;;;;;5020430;28;20399;-79
2023/08/17 05:51:01;;;;;;;7.70;5.85;;;;;;;;;;5042668;28;20021;-79
2023/08/17 05:53:26;;;;;;;7.68;5.55;;;;;;;;;;5039283;28;20045;-79
2023/08/17 05:55:51;;;;;;;7.10;6.05;;;;;;;;;;5041823;28;20091;-79
2023/08/17 05:58:17;;;;;;;8.45;5.82;;;;;;;;;;5026216;28;20427;-79
2023/08/17 06:00:42;;;;;;;6.80;5.57;;;;;;;;;;5032859;28;20291;-78
2023/08/17 06:03:07;;;;;;;6.03;5.18;;;;;;;;;;5036939;28;20045;-78
2023/08/17 06:05:33;;;;;;;6.05;5.45;;;;;;;;;;5020642;28;20048;-79
2023/08/17 06:07:59;;;;;;;6.90;5.80;;;;;;;;;;5018662;28;20042;-78
2023/08/17 06:10:25;;;;;;;6.32;5.13;;;;;;;;;;5035263;28;20038;-78
2023/08/17 06:12:54;;;;;;;6.95;5.10;;;;;;;;;;5023306;28;20032;-79
2023/08/17 06:15:20;;;;;;;4.93;4.50;;;;;;;;;;5012209;28;20040;-78
2023/08/17 06:17:45;;;;;;;5.45;4.88;;;;;;;;;;5035688;28;20025;-78
2023/08/17 06:20:11;;;;;;;6.63;4.63;;;;;;;;;;5013824;28;20580;-77
2023/08/17 06:22:37;;;;;;;4.70;4.20;;;;;;;;;;5012906;28;20037;-79
2023/08/17 06:25:04;;;;;;;4.70;4.05;;;;;;;;;;5030371;28;20040;-79
2023/08/17 06:27:30;;;;;;;7.22;3.50;;;;;;;;;;5015667;28;20029;-79
2023/08/17 06:29:55;;;;;;;4.22;3.53;;;;;;;;;;5034004;28;20036;-78
2023/08/17 06:32:21;;;;;;;3.92;3.33;;;;;;;;;;5018622;28;20073;-79
2023/08/17 06:34:46;;;;;;;4.65;3.95;;;;;;;;;;5014496;28;20038;-78
2023/08/17 06:37:11;;;;;;;3.83;3.22;;;;;;;;;;5033494;28;20037;-77
2023/08/17 06:39:43;;;;;;;5.65;3.60;;;;;;;;;;5017496;28;20037;-77
2023/08/17 06:42:08;;;;;;;3.50;3.20;;;;;;;;;;5034320;28;20009;-79
2023/08/17 06:44:33;;;;;;;3.72;3.25;;;;;;;;;;5040983;28;20157;-80
2023/08/17 06:46:59;;;;;;;4.35;3.33;;;;;;;;;;5034389;28;20539;-80
2023/08/17 06:49:25;;;;;;;3.47;3.05;;;;;;;;;;5019087;28;20083;-80
2023/08/17 06:51:50;;;;;;;6.00;3.17;;;;;;;;;;5017773;28;20086;-80
2023/08/17 06:54:15;;;;;;;4.72;2.90;;;;;;;;;;5016336;28;20040;-78
2023/08/17 06:56:41;;;;;;;3.67;2.90;;;;;;;;;;5020095;28;20456;-78
2023/08/17 06:59:06;;;;;;;3.88;2.95;;;;;;;;;;5020959;28;20029;-79
2023/08/17 07:01:32;;;;;;;3.60;2.92;;;;;;;;;;5018418;28;20033;-79
2023/08/17 07:03:57;;;;;;;5.35;2.72;;;;;;;;;;5037734;28;20045;-79
2023/08/17 07:06:25;;;;;;;4.95;2.70;;;;;;;;;;5040964;28;20033;-79
2023/08/17 07:08:52;;;;;;;3.72;2.50;;;;;;;;;;5019211;28;20013;-79
2023/08/17 07:11:18;;;;;;;2.72;2.50;;;;;;;;;;5023945;28;20045;-79
2023/08/17 07:13:43;;;;;;;4.15;2.83;;;;;;;;;;5016783;28;20172;-81
2023/08/17 07:16:08;;;;;;;3.88;2.80;;;;;;;;;;5018779;28;20034;-78
2023/08/17 07:18:34;;;;;;;11.32;2.97;;;;;;;;;;5038681;28;20030;-79
2023/08/17 07:20:59;;;;;;;2.65;2.45;;;;;;;;;;5022687;28;20029;-79
2023/08/17 07:23:24;;;;;;;2.72;2.38;;;;;;;;;;5031981;28;20052;-79
2023/08/17 07:25:49;;;;;;;3.55;2.70;;;;;;;;;;5014918;28;20117;-78
2023/08/17 07:28:15;;;;;;;3.03;2.78;;;;;;;;;;5032465;28;20049;-79
2023/08/17 07:30:41;;;;;;;4.00;2.55;;;;;;;;;;5020097;28;20503;-78
2023/08/17 07:33:06;;;;;;;3.28;2.70;;;;;;;;;;5015825;28;20025;-80
2023/08/17 07:35:31;;;;;;;2.92;2.67;;;;;;;;;;5015844;28;20030;-79
2023/08/17 07:37:56;;;;;;;4.95;3.22;;;;;;;;;;5017080;28;20033;-79
2023/08/17 07:40:22;;;;;;;3.35;3.00;;;;;;;;;;5038704;28;20107;-80
2023/08/17 07:42:48;;;;;;;3.63;2.67;;;;;;;;;;5017824;28;20395;-80
2023/08/17 07:45:13;;;;;;;3.88;3.05;;;;;;;;;;5015698;28;20040;-79
2023/08/17 07:47:38;;;;;;;5.97;3.10;;;;;;;;;;5017404;28;20475;-80
2023/08/17 07:50:05;;;;;;;4.72;2.90;;;;;;;;;;5017060;28;20025;-80
2023/08/17 07:52:31;;;;;;;4.28;3.15;;;;;;;;;;5018778;28;20037;-79
2023/08/17 07:54:56;;;;;;;4.00;3.45;;;;;;;;;;5014305;28;20051;-80
2023/08/17 07:57:21;;;;;;;3.85;3.38;;;;;;;;;;5033158;28;20538;-80
2023/08/17 07:59:51;;;;;;;3.45;3.15;;;;;;;;;;5021642;28;20144;-80
2023/08/17 08:02:16;;;;;;;9.30;3.42;;;;;;;;;;5016605;28;20141;-80
2023/08/17 08:04:42;;;;;;;4.40;3.25;;;;;;;;;;5018219;28;20049;-80
2023/08/17 08:07:07;;;;;;;3.60;3.33;;;;;;;;;;5018333;28;20044;-79
2023/08/17 08:09:32;;;;;;;4.05;3.42;;;;;;;;;;5012887;28;20037;-79
2023/08/17 08:11:57;;;;;;;3.45;3.13;;;;;;;;;;5017696;28;20439;-79
2023/08/17 08:14:23;;;;;;;3.65;3.33;;;;;;;;;;5018147;28;20045;-80
2023/08/17 08:16:48;;;;;;;3.50;3.20;;;;;;;;;;5017694;28;20160;-79
2023/08/17 08:19:13;;;;;;;3.05;2.83;;;;;;;;;;5014865;28;20025;-80
2023/08/17 08:21:38;;;;;;;3.50;3.00;;;;;;;;;;5039507;28;20036;-80
2023/08/17 08:24:04;;;;;;;3.03;2.72;;;;;;;;;;5040448;28;20095;-80
2023/08/17 08:26:29;;;;;;;3.33;2.40;;;;;;;;;;5036453;28;20017;-79
2023/08/17 08:28:55;;;;;;;5.65;2.58;;;;;;;;;;5038569;28;20499;-80
2023/08/17 08:31:20;;;;;;;2.95;2.65;;;;;;;;;;5040306;28;20106;-80
2023/08/17 08:33:46;;;;;;;4.28;2.83;;;;;;;;;;5042031;28;20032;-80
2023/08/17 08:36:11;;;;;;;3.28;2.97;;;;;;;;;;5020599;28;20390;-80
2023/08/17 08:38:37;;;;;;;4.13;2.70;;;;;;;;;;5041191;28;20031;-79
2023/08/17 08:41:03;;;;;;;4.82;2.72;;;;;;;;;;5039027;28;20037;-79
2023/08/17 08:43:29;;;;;;;3.85;3.00;;;;;;;;;;5019875;28;20055;-79
2023/08/17 08:45:55;;;;;;;5.25;3.25;;;;;;;;;;5019649;28;20081;-80
2023/08/17 08:48:22;;;;;;;4.32;3.13;;;;;;;;;;5024615;28;20029;-79
2023/08/17 08:50:50;;;;;;;3.45;2.97;;;;;;;;;;5040934;28;20056;-79
2023/08/17 08:53:17;;;;;;;3.45;3.15;;;;;;;;;;5038794;28;20033;-79
2023/08/17 08:55:55;;;;;;;4.72;2.90;;;;;;;;;;5041686;28;20045;-80
2023/08/17 08:58:21;;;;;;;3.08;2.80;;;;;;;;;;5040263;28;20040;-79
2023/08/17 09:00:47;;;;;;;3.08;2.80;;;;;;;;;;5021613;28;20599;-79
2023/08/17 09:03:15;;;;;;;2.95;2.65;;;;;;;;;;5038329;28;20026;-79
2023/08/17 09:05:42;;;;;;;5.75;2.40;;;;;;;;;;5023239;28;20067;-79
2023/08/17 09:08:09;;;;;;;3.03;2.72;;;;;;;;;;5019928;28;20067;-79
2023/08/17 09:10:35;;;;;;;2.72;2.30;;;;;;;;;;5036458;28;20034;-79
2023/08/17 09:13:00;;;;;;;2.40;2.20;;;;;;;;;;5020096;28;20626;-79
2023/08/17 09:15:25;;;;;;;2.45;2.25;;;;;;;;;;5033055;28;20055;-80
2023/08/17 09:17:50;;;;;;;2.67;2.25;;;;;;;;;;5025423;28;20048;-79
2023/08/17 09:20:44;;;;;;;3.58;2.60;;;;;;;;;;5018375;28;20030;-79
2023/08/17 09:23:13;;;;;;;4.07;2.38;;;;;;;;;;5035398;28;20037;-79
2023/08/17 09:28:14;;;;;;;3.47;2.33;;;;;;;;;;5004686;28;20034;-81
2023/08/17 09:30:54;;;;;;;4.40;2.40;;;;;;;;;;5004542;28;20559;-82
2023/08/17 09:33:21;;;;;;;5.45;2.40;;;;;;;;;;4995625;28;20499;-83
2023/08/17 09:35:46;;;;;;;2.40;2.20;;;;;;;;;;4998636;28;20148;-81
2023/08/17 09:38:11;;;;;;;2.13;1.92;;;;;;;;;;4997468;28;20054;-82
2023/08/17 09:40:37;;;;;;;2.40;2.20;;;;;;;;;;4998800;28;20034;-82
2023/08/17 09:43:02;;;;;;;3.25;2.50;;;;;;;;;;5009138;28;20033;-83
2023/08/17 09:45:28;;;;;;;2.42;2.20;;;;;;;;;;4986614;28;20495;-83
2023/08/17 09:47:54;;;;;;;4.22;2.28;;;;;;;;;;5007016;28;20106;-84
2023/08/17 09:50:23;;;;;;;3.53;2.53;;;;;;;;;;4996345;28;20508;-82
2023/08/17 09:52:53;;;;;;;3.15;2.10;;;;;;;;;;5001566;28;20034;-82
2023/08/17 09:55:23;;;;;;;2.88;2.22;;;;;;;;;;4998590;28;20034;-82
2023/08/17 09:57:50;;;;;;;3.30;2.25;;;;;;;;;;5016426;28;20034;-82
2023/08/17 10:00:15;;;;;;;6.68;2.90;;;;;;;;;;5015801;28;20096;-81
2023/08/17 10:02:43;;;;;;;5.45;3.20;;;;;;;;;;5015977;28;20034;-78
2023/08/17 10:05:12;;;;;;;4.05;3.30;;;;;;;;;;5006553;28;20160;-83
2023/08/17 10:07:42;;;;;;;9.55;3.22;;;;;;;;;;4996552;28;20038;-82
2023/08/17 10:10:10;;;;;;;2.90;2.70;;;;;;;;;;4996733;28;20035;-82
2023/08/17 10:12:50;;;;;;;3.03;2.70;;;;;;;;;;5013996;28;20031;-80
2023/08/17 10:15:18;;;;;;;3.40;3.03;;;;;;;;;;5011816;28;20072;-79
2023/08/17 10:18:07;;;;;;;9.93;2.65;;;;;;;;;;5013356;28;20466;-79
2023/08/17 10:20:34;;;;;;;3.90;2.55;;;;;;;;;;4983259;28;20031;-78
2023/08/17 10:23:14;;;;;;;5.20;2.80;;;;;;;;;;5005340;28;20033;-79
2023/08/17 10:25:44;;;;;;;2.75;2.50;;;;;;;;;;5023597;28;20030;-79
2023/08/17 10:28:10;;;;;;;4.05;2.72;;;;;;;;;;4999235;28;20431;-79
2023/08/17 10:30:37;;;;;;;5.03;2.53;;;;;;;;;;5007516;28;20049;-79
2023/08/17 10:33:07;;;;;;;2.30;2.20;;;;;;;;;;5004578;28;20035;-82
2023/08/17 10:35:34;;;;;;;3.50;2.30;;;;;;;;;;5008866;28;20129;-84
2023/08/17 10:38:00;;;;;;;3.22;2.40;;;;;;;;;;5004981;28;20038;-84
2023/08/17 10:40:27;;;;;;;2.83;2.22;;;;;;;;;;5006970;28;20050;-83
2023/08/17 10:42:56;;;;;;;2.28;2.08;;;;;;;;;;4998675;28;20092;-83
2023/08/17 10:45:30;;;;;;;2.47;2.10;;;;;;;;;;4998553;28;20034;-83
2023/08/17 10:48:08;;;;;;;2.22;1.92;;;;;;;;;;4980552;28;20491;-83
2023/08/17 10:50:35;;;;;;;2.85;1.90;;;;;;;;;;4996524;28;20034;-83
2023/08/17 10:53:12;;;;;;;3.50;1.70;;;;;;;;;;4997639;28;20049;-83
2023/08/17 10:55:44;;;;;;;2.80;2.00;;;;;;;;;;4996404;28;20113;-83
2023/08/17 10:58:09;;;;;;;2.15;2.05;;;;;;;;;;4997725;28;20042;-81
2023/08/17 11:00:38;;;;;;;2.35;2.15;;;;;;;;;;5000484;28;20396;-80
2023/08/17 11:03:05;;;;;;;2.50;2.30;;;;;;;;;;4979470;28;20077;-80
2023/08/17 11:05:49;;;;;;;2.45;2.25;;;;;;;;;;5003055;28;20129;-80
2023/08/17 11:08:23;;;;;;;3.22;2.10;;;;;;;;;;5001633;28;20038;-80
2023/08/17 11:11:13;;;;;;;3.45;2.28;;;;;;;;;;5005003;28;20066;-81
2023/08/17 11:13:44;;;;;;;3.72;2.22;;;;;;;;;;4986066;28;20042;-81
2023/08/17 11:16:11;;;;;;;2.60;2.22;;;;;;;;;;4996357;28;20089;-79
2023/08/17 11:18:37;;;;;;;2.88;2.10;;;;;;;;;;5004974;28;20090;-80
2023/08/17 11:21:04;;;;;;;2.10;2.00;;;;;;;;;;5007386;28;20028;-79
2023/08/17 11:23:30;;;;;;;4.72;2.22;;;;;;;;;;5006616;28;20028;-78
2023/08/17 11:25:56;;;;;;;2.88;2.45;;;;;;;;;;5008861;28;20041;-81
2023/08/17 11:28:23;;;;;;;2.28;2.00;;;;;;;;;;5017306;28;20102;-81
2023/08/17 11:31:02;;;;;;;2.63;2.10;;;;;;;;;;5015583;28;20121;-81
2023/08/17 11:34:41;;;;;;;4.78;2.25;;;;;;;;;;5012974;28;20033;-82
2023/08/17 11:37:06;;;;;;;3.03;2.20;;;;;;;;;;5016546;28;20045;-81
2023/08/17 11:39:35;;;;;;;2.38;1.85;;;;;;;;;;5009334;28;20037;-81
2023/08/17 11:42:00;;;;;;;5.57;2.28;;;;;;;;;;5014629;28;20041;-81
2023/08/17 11:44:25;;;;;;;4.60;2.15;;;;;;;;;;5014718;28;20128;-81
2023/08/17 11:46:51;;;;;;;5.60;2.47;;;;;;;;;;5006654;28;20037;-80
2023/08/17 11:49:17;;;;;;;3.35;2.08;;;;;;;;;;5014349;28;20118;-82
2023/08/17 11:51:42;;;;;;;3.03;2.40;;;;;;;;;;5009468;28;20054;-82
2023/08/17 11:54:08;;;;;;;3.85;2.10;;;;;;;;;;5006433;28;20022;-79
2023/08/17 11:56:34;;;;;;;2.15;2.05;;;;;;;;;;4990433;28;20081;-80
2023/08/17 11:59:11;;;;;;;2.78;2.10;;;;;;;;;;5008231;28;20098;-79
2023/08/17 12:01:36;;;;;;;2.35;2.15;;;;;;;;;;5003895;28;20022;-80
2023/08/17 12:04:04;;;;;;;2.42;2.15;;;;;;;;;;5000791;28;20050;-80
2023/08/17 12:06:30;;;;;;;6.40;2.40;;;;;;;;;;5002653;28;20030;-81
2023/08/17 12:08:55;;;;;;;6.55;2.55;;;;;;;;;;4999822;28;20042;-80
2023/08/17 12:11:24;;;;;;;5.47;2.10;;;;;;;;;;5005136;28;20038;-80
2023/08/17 12:13:51;;;;;;;3.08;2.75;;;;;;;;;;5012177;28;20061;-82
2023/08/17 12:16:17;;;;;;;2.67;2.47;;;;;;;;;;5019244;28;20034;-81
2023/08/17 12:18:52;;;;;;;4.80;2.30;;;;;;;;;;5014860;28;20065;-83
2023/08/17 12:21:22;;;;;;;3.08;2.25;;;;;;;;;;4996412;28;20109;-82
2023/08/17 12:23:47;;;;;;;2.85;2.55;;;;;;;;;;5010380;28;20025;-82
2023/08/17 12:26:22;;;;;;;4.63;3.05;;;;;;;;;;5013269;28;20044;-82
2023/08/17 12:28:49;;;;;;;2.85;2.65;;;;;;;;;;5013852;28;20030;-82
2023/08/17 12:31:21;;;;;;;3.70;2.90;;;;;;;;;;4998751;28;20054;-83
2023/08/17 12:33:46;;;;;;;3.92;3.10;;;;;;;;;;5015385;28;20034;-83
2023/08/17 12:36:11;;;;;;;2.92;2.70;;;;;;;;;;5016237;28;20048;-83
2023/08/17 12:38:39;;;;;;;4.47;2.83;;;;;;;;;;5017731;28;20041;-83
2023/08/17 12:41:04;;;;;;;10.40;2.90;;;;;;;;;;4988525;28;20022;-84
2023/08/17 12:43:30;;;;;;;3.45;2.67;;;;;;;;;;5008989;28;20394;-84
2023/08/17 12:45:55;;;;;;;3.42;2.65;;;;;;;;;;5008961;28;20097;-84
2023/08/17 12:48:20;;;;;;;4.65;2.40;;;;;;;;;;5012485;28;20672;-83
2023/08/17 12:50:45;;;;;;;3.17;2.45;;;;;;;;;;4992317;28;20028;-83
2023/08/17 12:53:11;;;;;;;2.92;2.55;;;;;;;;;;5007807;28;20311;-83
2023/08/17 12:55:36;;;;;;;3.00;2.80;;;;;;;;;;5009997;28;20029;-84
2023/08/17 12:58:02;;;;;;;3.33;2.47;;;;;;;;;;4994148;28;20032;-84
2023/08/17 13:00:27;;;;;;;3.53;2.50;;;;;;;;;;4996180;28;20029;-84
2023/08/17 13:02:52;;;;;;;4.28;3.20;;;;;;;;;;4998689;28;20022;-84
2023/08/17 13:05:18;;;;;;;5.72;3.08;;;;;;;;;;4996653;28;20027;-84
2023/08/17 13:07:43;;;;;;;5.05;3.13;;;;;;;;;;4997565;28;20030;-85
2023/08/17 13:10:08;;;;;;;6.80;2.85;;;;;;;;;;4998822;28;20096;-85
2023/08/17 13:12:33;;;;;;;4.63;3.47;;;;;;;;;;4991066;28;20062;-83
2023/08/17 13:14:59;;;;;;;7.85;3.00;;;;;;;;;;5002233;28;20027;-80
2023/08/17 13:17:24;;;;;;;6.72;3.30;;;;;;;;;;5006728;28;20038;-80
2023/08/17 13:19:49;;;;;;;6.18;3.25;;;;;;;;;;4993065;28;20033;-80
2023/08/17 13:22:15;;;;;;;3.35;2.63;;;;;;;;;;4990027;28;20078;-82
2023/08/17 13:24:40;;;;;;;5.47;2.97;;;;;;;;;;4987698;28;20066;-82
2023/08/17 13:27:05;;;;;;;5.07;3.22;;;;;;;;;;5005900;28;20026;-80
2023/08/17 13:29:31;;;;;;;4.13;2.88;;;;;;;;;;5011701;28;20038;-84
2023/08/17 13:31:56;;;;;;;4.15;2.83;;;;;;;;;;5009674;28;20038;-84
2023/08/17 13:34:21;;;;;;;3.38;2.22;;;;;;;;;;5004497;28;20516;-84
2023/08/17 13:36:46;;;;;;;2.33;2.13;;;;;;;;;;5014476;28;20038;-81
2023/08/17 13:39:12;;;;;;;5.88;2.20;;;;;;;;;;4991633;28;20025;-83
2023/08/17 13:41:37;;;;;;;4.20;2.67;;;;;;;;;;5006900;28;20077;-84
2023/08/17 13:44:03;;;;;;;9.30;2.70;;;;;;;;;;5009206;28;20433;-84
2023/08/17 13:46:28;;;;;;;2.80;2.30;;;;;;;;;;5010996;28;20093;-83
2023/08/17 13:48:54;;;;;;;4.03;2.53;;;;;;;;;;4993910;28;20231;-83
2023/08/17 13:51:19;;;;;;;4.43;2.28;;;;;;;;;;5001737;28;20464;-82
2023/08/17 13:53:44;;;;;;;3.20;2.72;;;;;;;;;;4999416;28;20026;-83
2023/08/17 13:56:10;;;;;;;4.22;2.38;;;;;;;;;;4998894;28;20397;-84
2023/08/17 13:58:35;;;;;;;2.53;2.30;;;;;;;;;;4997102;28;20098;-83
2023/08/17 14:01:00;;;;;;;3.10;2.33;;;;;;;;;;4999198;28;20034;-83
2023/08/17 14:03:26;;;;;;;3.67;2.70;;;;;;;;;;4981246;28;20061;-84
2023/08/17 14:05:52;;;;;;;8.07;2.65;;;;;;;;;;4981495;28;20037;-83
2023/08/17 14:08:17;;;;;;;2.67;1.90;;;;;;;;;;4996296;28;20031;-83
2023/08/17 14:10:42;;;;;;;2.58;2.15;;;;;;;;;;4983000;28;20440;-79
2023/08/17 14:13:07;;;;;;;3.47;2.00;;;;;;;;;;4988957;28;20488;-81
2023/08/17 14:15:33;;;;;;;5.25;2.28;;;;;;;;;;4986272;28;20042;-82
2023/08/17 14:18:12;;;;;;;2.20;2.08;;;;;;;;;;5007294;28;20026;-80
2023/08/17 14:20:37;;;;;;;2.38;2.20;;;;;;;;;;5002401;28;20041;-81
2023/08/17 14:23:09;;;;;;;3.03;1.95;;;;;;;;;;5009912;28;20057;-82
2023/08/17 14:25:40;;;;;;;4.32;2.20;;;;;;;;;;5004078;28;20095;-81
2023/08/17 14:28:14;;;;;;;3.45;1.95;;;;;;;;;;5004681;28;20105;-80
2023/08/17 14:30:39;;;;;;;4.78;1.70;;;;;;;;;;5006921;28;20050;-79
2023/08/17 14:33:04;;;;;;;2.42;1.90;;;;;;;;;;5000146;28;20380;-80
2023/08/17 14:35:30;;;;;;;4.47;1.80;;;;;;;;;;5009785;28;20052;-80